This is the latest recevied weather packets stored in our database for station/object KL4TQ. If no packets are shown the sender has not sent any weather packets the latest 10 day(s).
| Time | Temp. | Humidity | Pressure | Rain* | Wind** | Luminosity | Snow |
|---|---|---|---|---|---|---|---|
| 1778007370 | 6.67° C | 80% | 857 hPa | 0 mm | - | 288 W/m² | - |
| 1778007069 | 6.67° C | 80% | 857 hPa | 0 mm | - | 232 W/m² | - |
| 1778006769 | 6.67° C | 80% | 857 hPa | 0 mm | - | 232 W/m² | - |
| 1778006469 | 6.67° C | 79% | 857 hPa | 0 mm | - | 236 W/m² | - |
| 1778006168 | 6.67° C | 79% | 857 hPa | 0 mm | - | 275 W/m² | - |
| 1778005869 | 6.67° C | 77% | 857 hPa | 0 mm | - | 274 W/m² | - |
| 1778005569 | 6.11° C | 78% | 857 hPa | 0 mm | - | 254 W/m² | - |
| 1778005269 | 6.11° C | 84% | 857 hPa | 0 mm | - | 269 W/m² | - |
| 1778004968 | 6.67° C | 81% | 857 hPa | 0 mm | - | 262 W/m² | - |
| 1778004669 | 7.22° C | 78% | 857 hPa | 0 mm | - | 237 W/m² | - |
| 1778004369 | 7.78° C | 76% | 857 hPa | 0 mm | - | 306 W/m² | - |
| 1778004072 | 8.33° C | 73% | 857 hPa | 0 mm | - | 469 W/m² | - |
| 1778003773 | 7.78° C | 73% | 857 hPa | 0 mm | - | 427 W/m² | - |
| 1778003468 | 7.78° C | 75% | 857 hPa | 0 mm | - | 358 W/m² | - |
| 1778003169 | 7.78° C | 74% | 857 hPa | 0 mm | - | 456 W/m² | - |
| 1778002868 | 7.22° C | 77% | 857 hPa | 0 mm | - | 488 W/m² | - |
| 1778002569 | 7.78° C | 76% | 857 hPa | 0 mm | - | 241 W/m² | - |
| 1778002268 | 7.78° C | 75% | 857 hPa | 0 mm | - | 350 W/m² | - |
| 1778001969 | 7.22° C | 76% | 857 hPa | 0 mm | - | 407 W/m² | - |
| 1778001669 | 7.22° C | 76% | 857 hPa | 0 mm | - | 381 W/m² | - |
| 1778001369 | 6.67° C | 78% | 857 hPa | 0 mm | - | 355 W/m² | - |
| 1778001069 | 6.11° C | 79% | 857 hPa | 0 mm | - | 337 W/m² | - |
| 1778000768 | 6.67° C | 79% | 857 hPa | 0 mm | - | 292 W/m² | - |
| 1778000468 | 6.67° C | 79% | 857 hPa | 0 mm | - | 298 W/m² | - |
| 1778000168 | 6.67° C | 78% | 857 hPa | 0 mm | - | 299 W/m² | - |
* Rain latest hour (hover to see other rain measurements)
** Current wind speed in m/s (hover to see current wind gust speed)